createdAt,value
2017-11-18T00:00:43.717Z,15.45
2017-11-18T00:03:11.221Z,17.23
2017-11-18T00:05:39.451Z,19.77
2017-11-18T00:08:06.952Z,17.10
2017-11-18T00:10:35.213Z,20.35
2017-11-18T00:13:02.688Z,17.25
2017-11-18T00:15:30.946Z,17.45
2017-11-18T00:17:58.405Z,17.40
2017-11-18T00:20:25.914Z,14.35
2017-11-18T00:22:53.405Z,14.23
2017-11-18T00:25:20.936Z,12.68
2017-11-18T00:27:49.166Z,13.20
2017-11-18T00:30:16.677Z,13.15
2017-11-18T00:32:44.166Z,8.82
2017-11-18T00:35:11.638Z,14.23
2017-11-18T00:37:39.139Z,12.30
2017-11-18T00:40:06.628Z,15.60
2017-11-18T00:42:34.156Z,17.20
2017-11-18T00:45:01.627Z,15.93
2017-11-18T00:47:29.132Z,16.98
2017-11-18T00:49:56.636Z,19.40
2017-11-18T00:52:24.113Z,19.23
2017-11-18T00:54:51.589Z,18.00
2017-11-18T00:57:19.105Z,29.42
2017-11-18T00:59:46.596Z,36.65
2017-11-18T01:02:14.068Z,27.10
2017-11-18T01:04:41.571Z,31.92
2017-11-18T01:07:09.064Z,33.13
2017-11-18T01:09:36.542Z,34.55
2017-11-18T01:12:04.034Z,37.97
2017-11-18T01:14:32.286Z,34.90
2017-11-18T01:16:59.793Z,42.00
2017-11-18T01:19:27.261Z,36.97
2017-11-18T01:21:54.743Z,42.22
2017-11-18T01:24:22.225Z,33.72
2017-11-18T01:26:49.692Z,37.95
2017-11-18T01:29:17.214Z,43.30
2017-11-18T01:31:44.693Z,39.83
2017-11-18T01:34:12.185Z,42.58
2017-11-18T01:36:40.476Z,37.58
2017-11-18T01:39:07.972Z,44.05
2017-11-18T01:41:35.508Z,38.53
2017-11-18T01:44:03.012Z,64.00
2017-11-18T01:46:30.509Z,52.97
2017-11-18T01:48:58.029Z,49.75
2017-11-18T01:51:25.498Z,42.70
2017-11-18T01:53:53.002Z,45.30
2017-11-18T01:56:20.505Z,52.13
2017-11-18T01:58:47.979Z,52.65
2017-11-18T02:01:16.240Z,52.78
2017-11-18T02:03:43.711Z,52.35
2017-11-18T02:06:11.230Z,44.38
2017-11-18T02:08:38.709Z,52.60
2017-11-18T02:11:06.177Z,47.05
2017-11-18T02:13:33.668Z,49.63
2017-11-18T02:16:01.152Z,69.93
2017-11-18T02:18:28.649Z,43.87
2017-11-18T02:20:56.172Z,47.03
2017-11-18T02:23:23.676Z,60.30
2017-11-18T02:25:51.154Z,46.75
2017-11-18T02:28:19.419Z,47.10
2017-11-18T02:30:47.695Z,47.70
2017-11-18T02:33:15.195Z,43.85
2017-11-18T02:35:42.685Z,30.20
2017-11-18T02:38:10.177Z,32.38
2017-11-18T02:40:38.416Z,29.73
2017-11-18T02:43:05.909Z,31.42
2017-11-18T02:45:34.160Z,36.13
2017-11-18T02:48:01.631Z,27.17
2017-11-18T02:50:29.120Z,28.87
2017-11-18T02:52:56.604Z,25.98
2017-11-18T02:55:24.104Z,28.45
2017-11-18T02:57:51.584Z,29.98
2017-11-18T03:00:19.818Z,31.02
2017-11-18T03:02:47.321Z,23.60
2017-11-18T03:05:15.557Z,26.90
2017-11-18T03:07:43.068Z,33.22
2017-11-18T03:10:10.543Z,26.62
2017-11-18T03:12:38.062Z,28.60
2017-11-18T03:15:05.516Z,23.27
2017-11-18T03:17:32.986Z,25.10
2017-11-18T03:20:01.248Z,28.35
2017-11-18T03:22:28.722Z,20.88
2017-11-18T03:24:56.202Z,26.12
2017-11-18T03:27:23.724Z,24.05
2017-11-18T03:29:51.215Z,25.20
2017-11-18T03:32:18.704Z,20.25
2017-11-18T03:34:46.177Z,15.45
2017-11-18T03:37:14.360Z,19.98
2017-11-18T03:39:41.838Z,15.88
2017-11-18T03:42:09.296Z,19.73
2017-11-18T03:44:37.550Z,16.48
2017-11-18T03:47:05.054Z,16.77
2017-11-18T03:49:33.342Z,19.80
2017-11-18T03:52:00.802Z,17.05
2017-11-18T03:54:28.315Z,14.48
2017-11-18T03:56:55.784Z,12.85
2017-11-18T03:59:23.272Z,17.15
2017-11-18T04:01:50.776Z,14.70
2017-11-18T04:04:18.257Z,13.18
2017-11-18T04:06:45.745Z,10.70
2017-11-18T04:09:13.220Z,13.82
2017-11-18T04:11:40.715Z,16.05
2017-11-18T04:14:08.193Z,15.85
2017-11-18T04:16:35.652Z,13.50
2017-11-18T04:19:03.146Z,11.90
2017-11-18T04:21:30.614Z,11.05
2017-11-18T04:23:58.156Z,12.70
2017-11-18T04:26:25.625Z,14.85
2017-11-18T04:28:53.092Z,12.85
2017-11-18T04:31:20.580Z,13.98
2017-11-18T04:33:48.053Z,16.40
2017-11-18T04:36:15.539Z,16.10
2017-11-18T04:38:43.802Z,11.88
2017-11-18T04:41:12.054Z,10.63
2017-11-18T04:43:39.552Z,13.20
2017-11-18T04:46:07.795Z,14.40
2017-11-18T04:48:35.284Z,12.95
2017-11-18T04:51:03.520Z,13.77
2017-11-18T04:53:31.028Z,13.43
2017-11-18T04:55:58.525Z,16.73
2017-11-18T04:58:26.009Z,18.87
2017-11-18T05:00:53.509Z,15.43
2017-11-18T05:03:21.016Z,12.35
2017-11-18T05:05:48.512Z,19.45
2017-11-18T05:08:16.757Z,18.50
2017-11-18T05:10:44.281Z,17.00
2017-11-18T05:13:11.737Z,17.95
2017-11-18T05:15:39.219Z,17.80
2017-11-18T05:18:06.700Z,15.98
2017-11-18T05:20:34.169Z,15.45
2017-11-18T05:23:02.441Z,16.30
2017-11-18T05:25:29.921Z,15.25
2017-11-18T05:27:58.151Z,10.48
2017-11-18T05:30:25.664Z,12.18
2017-11-18T05:32:53.125Z,10.25
2017-11-18T05:35:20.609Z,8.05
2017-11-18T05:37:48.065Z,6.28
2017-11-18T05:40:15.584Z,11.05
2017-11-18T05:42:43.867Z,9.55
2017-11-18T05:45:12.102Z,7.80
2017-11-18T05:47:39.611Z,8.52
2017-11-18T05:50:07.074Z,7.25
2017-11-18T05:52:34.965Z,13.80
2017-11-18T05:55:02.478Z,14.00
2017-11-18T05:57:30.728Z,12.25
2017-11-18T05:59:58.206Z,9.85
2017-11-18T06:02:26.455Z,15.85
2017-11-18T06:04:53.965Z,14.10
2017-11-18T06:07:21.423Z,16.87
2017-11-18T06:09:48.928Z,17.33
2017-11-18T06:12:16.396Z,18.05
2017-11-18T06:14:43.896Z,17.45
2017-11-18T06:17:12.124Z,13.43
2017-11-18T06:19:39.604Z,15.40
2017-11-18T06:22:07.174Z,18.12
2017-11-18T06:24:35.415Z,14.68
2017-11-18T06:27:02.909Z,14.00
2017-11-18T06:29:31.157Z,15.38
2017-11-18T06:31:58.673Z,16.77
2017-11-18T06:34:26.164Z,12.43
2017-11-18T06:36:53.625Z,15.40
2017-11-18T06:39:21.125Z,14.75
2017-11-18T06:41:49.372Z,16.27
2017-11-18T06:44:16.889Z,16.45
2017-11-18T06:46:45.262Z,15.07
2017-11-18T06:49:12.764Z,17.35
2017-11-18T06:51:40.238Z,17.87
2017-11-18T06:54:07.708Z,18.00
2017-11-18T06:56:35.957Z,16.83
2017-11-18T06:59:04.928Z,17.25
2017-11-18T07:01:32.456Z,18.55
2017-11-18T07:04:00.680Z,20.08
2017-11-18T07:06:28.172Z,17.10
2017-11-18T07:08:56.452Z,18.12
2017-11-18T07:11:24.715Z,18.30
2017-11-18T07:13:52.226Z,12.40
2017-11-18T07:16:19.758Z,7.43
2017-11-18T07:18:48.018Z,9.77
2017-11-18T07:21:15.581Z,6.87
2017-11-18T07:23:43.821Z,9.70
2017-11-18T07:26:11.348Z,12.55
2017-11-18T07:28:38.849Z,10.77
2017-11-18T07:31:06.362Z,14.57
2017-11-18T07:33:33.838Z,23.87
2017-11-18T07:36:01.369Z,20.33
2017-11-18T07:38:29.596Z,12.13
2017-11-18T07:40:57.080Z,10.98
2017-11-18T07:43:24.576Z,10.05
2017-11-18T07:45:52.082Z,12.55
2017-11-18T07:48:19.576Z,11.80
2017-11-18T07:50:47.832Z,9.70
2017-11-18T07:53:15.318Z,10.55
2017-11-18T07:55:42.817Z,12.32
2017-11-18T07:58:10.303Z,8.43
2017-11-18T08:00:37.811Z,11.85
2017-11-18T08:03:05.322Z,11.10
2017-11-18T08:05:34.293Z,10.63
2017-11-18T08:08:01.784Z,10.52
2017-11-18T08:10:30.064Z,14.55
2017-11-18T08:12:58.336Z,13.52
2017-11-18T08:15:25.815Z,15.05
2017-11-18T08:17:54.086Z,20.12
2017-11-18T08:20:22.516Z,12.88
2017-11-18T08:22:50.877Z,17.98
2017-11-18T08:25:18.374Z,18.00
2017-11-18T08:27:45.873Z,14.00
2017-11-18T08:30:14.116Z,19.23
2017-11-18T08:32:42.330Z,18.45
2017-11-18T08:35:09.860Z,15.38
2017-11-18T08:37:37.351Z,13.95
2017-11-18T08:40:04.817Z,18.75
2017-11-18T08:42:32.315Z,19.30
2017-11-18T08:44:59.793Z,19.25
2017-11-18T08:47:27.282Z,17.35
2017-11-18T08:49:54.805Z,19.05
2017-11-18T08:52:22.284Z,22.85
2017-11-18T08:54:50.525Z,21.37
2017-11-18T08:57:18.009Z,20.05
2017-11-18T08:59:46.597Z,22.02
2017-11-18T09:02:14.843Z,19.00
2017-11-18T09:04:42.305Z,18.05
2017-11-18T09:07:09.796Z,17.58
2017-11-18T09:09:38.069Z,20.95
2017-11-18T09:12:06.347Z,22.50
2017-11-18T09:14:34.574Z,15.50
2017-11-18T09:17:02.056Z,16.37
2017-11-18T09:19:29.543Z,13.57
2017-11-18T09:21:57.798Z,13.23
2017-11-18T09:24:25.300Z,16.60
2017-11-18T09:26:52.773Z,15.30
2017-11-18T09:29:20.293Z,13.52
2017-11-18T09:31:48.571Z,22.90
2017-11-18T09:34:16.813Z,17.23
2017-11-18T09:36:44.301Z,14.20
2017-11-18T09:39:12.538Z,16.48
2017-11-18T09:41:40.007Z,21.08
2017-11-18T09:44:07.504Z,22.67
2017-11-18T09:46:35.760Z,27.85
2017-11-18T09:49:03.224Z,20.30
2017-11-18T09:51:31.504Z,24.10
2017-11-18T09:53:59.766Z,19.77
2017-11-18T09:56:27.289Z,21.83
2017-11-18T09:58:54.770Z,13.95
2017-11-18T10:01:22.268Z,21.17
2017-11-18T10:03:49.782Z,20.42
2017-11-18T10:06:17.241Z,16.83
2017-11-18T10:08:44.757Z,23.60
2017-11-18T10:11:12.349Z,19.33
2017-11-18T10:13:40.073Z,19.58
2017-11-18T10:16:08.297Z,20.45
2017-11-18T10:18:35.837Z,19.80
2017-11-18T10:21:03.333Z,20.83
2017-11-18T10:23:30.811Z,16.60
2017-11-18T10:25:59.829Z,19.92
2017-11-18T10:28:27.317Z,16.48
2017-11-18T10:30:54.817Z,16.50
2017-11-18T10:33:22.296Z,23.20
2017-11-18T10:35:50.589Z,18.95
2017-11-18T10:38:18.085Z,17.92
2017-11-18T10:40:45.568Z,18.23
2017-11-18T10:43:13.058Z,13.18
2017-11-18T10:45:40.525Z,16.37
2017-11-18T10:48:08.083Z,13.25
2017-11-18T10:50:35.560Z,16.42
2017-11-18T10:53:03.021Z,17.50
2017-11-18T10:55:30.544Z,14.38
2017-11-18T10:57:58.783Z,16.62
2017-11-18T11:00:26.241Z,18.50
2017-11-18T11:02:53.728Z,19.02
2017-11-18T11:05:22.003Z,17.52
2017-11-18T11:07:50.257Z,17.20
2017-11-18T11:10:17.774Z,21.45
2017-11-18T11:12:45.269Z,15.95
2017-11-18T11:15:12.737Z,12.70
2017-11-18T11:17:40.248Z,11.75
2017-11-18T11:20:07.726Z,12.37
2017-11-18T11:22:35.290Z,14.70
2017-11-18T11:25:02.785Z,14.77
2017-11-18T11:27:31.075Z,20.62
2017-11-18T11:29:59.316Z,22.65
2017-11-18T11:32:26.830Z,17.48
2017-11-18T11:34:54.338Z,15.60
2017-11-18T11:37:21.815Z,27.87
2017-11-18T11:39:49.309Z,16.52
2017-11-18T11:42:16.783Z,15.95
2017-11-18T11:44:44.275Z,11.48
2017-11-18T11:47:11.747Z,14.18
2017-11-18T11:49:39.237Z,11.68
2017-11-18T11:52:06.717Z,20.33
2017-11-18T11:54:34.204Z,19.10
2017-11-18T11:57:01.710Z,11.50
2017-11-18T11:59:30.858Z,13.60
2017-11-18T12:01:58.344Z,16.10
2017-11-18T12:04:26.584Z,11.75
2017-11-18T12:06:54.081Z,15.57
2017-11-18T12:09:22.332Z,11.80
2017-11-18T12:11:49.858Z,10.20
2017-11-18T12:14:17.369Z,9.65
2017-11-18T12:16:44.860Z,8.20
2017-11-18T12:19:12.366Z,17.48
2017-11-18T12:21:39.874Z,10.63
2017-11-18T12:24:07.368Z,11.52
2017-11-18T12:26:34.843Z,8.52
2017-11-18T12:29:02.348Z,9.50
2017-11-18T12:31:29.841Z,12.00
2017-11-18T12:33:57.344Z,9.75
2017-11-18T12:36:25.621Z,13.62
2017-11-18T12:38:53.887Z,10.17
2017-11-18T12:41:21.356Z,12.48
2017-11-18T12:43:49.621Z,10.85
2017-11-18T12:46:17.123Z,10.55
2017-11-18T12:48:44.594Z,10.70
2017-11-18T12:51:12.089Z,13.20
2017-11-18T12:53:41.117Z,10.77
2017-11-18T12:56:09.390Z,13.75
2017-11-18T12:58:37.618Z,15.32
2017-11-18T13:01:05.137Z,11.57
2017-11-18T13:03:32.650Z,13.35
2017-11-18T13:06:00.131Z,9.63
2017-11-18T13:08:27.618Z,11.70
2017-11-18T13:10:55.092Z,8.30
2017-11-18T13:13:22.595Z,13.43
2017-11-18T13:15:50.121Z,10.13
2017-11-18T13:18:17.580Z,9.55
2017-11-18T13:20:45.085Z,8.60
2017-11-18T13:23:13.356Z,7.05
2017-11-18T13:25:40.836Z,9.55
2017-11-18T13:28:09.104Z,12.20
2017-11-18T13:30:37.347Z,8.77
2017-11-18T13:33:04.845Z,9.32
2017-11-18T13:35:33.106Z,9.15
2017-11-18T13:38:00.567Z,10.40
2017-11-18T13:40:28.841Z,6.47
2017-11-18T13:42:56.307Z,7.53
2017-11-18T13:45:24.574Z,13.23
2017-11-18T13:47:52.034Z,9.70
2017-11-18T13:50:19.501Z,7.15
2017-11-18T13:52:47.761Z,8.75
2017-11-18T13:55:15.229Z,10.98
2017-11-18T13:57:43.493Z,9.25
2017-11-18T14:00:11.732Z,8.30
2017-11-18T14:02:39.234Z,8.60
2017-11-18T14:05:06.709Z,9.57
2017-11-18T14:07:34.964Z,8.43
2017-11-18T14:10:02.447Z,8.55
2017-11-18T14:12:29.977Z,10.75
2017-11-18T14:14:57.481Z,6.25
2017-11-18T14:17:25.477Z,11.73
2017-11-18T14:19:52.945Z,12.95
2017-11-18T14:22:20.469Z,8.77
2017-11-18T14:24:47.972Z,7.80
2017-11-18T14:27:15.490Z,9.95
2017-11-18T14:29:42.978Z,11.18
2017-11-18T14:32:10.511Z,10.88
2017-11-18T14:34:38.007Z,10.07
2017-11-18T14:37:05.522Z,8.90
2017-11-18T14:39:33.043Z,7.90
2017-11-18T14:42:00.524Z,10.60
2017-11-18T14:44:28.773Z,8.52
2017-11-18T14:46:56.304Z,10.70
2017-11-18T14:49:23.785Z,10.80
2017-11-18T14:51:51.288Z,13.15
2017-11-18T14:54:18.744Z,11.27
2017-11-18T14:56:46.247Z,10.40
2017-11-18T14:59:13.708Z,10.20
2017-11-18T15:01:41.189Z,11.80
2017-11-18T15:04:08.690Z,13.48
2017-11-18T15:06:36.215Z,10.63
2017-11-18T15:09:03.717Z,10.98
2017-11-18T15:11:31.194Z,9.73
2017-11-18T15:13:58.705Z,15.02
2017-11-18T15:16:34.400Z,13.98
2017-11-18T15:19:08.438Z,13.73
2017-11-18T15:24:54.144Z,12.25
2017-11-18T15:27:27.325Z,11.80
2017-11-18T15:29:58.481Z,14.20
2017-11-18T15:32:31.522Z,12.75
2017-11-18T15:34:59.018Z,13.27
2017-11-18T15:40:30.269Z,20.88
2017-11-18T15:42:58.520Z,20.23
2017-11-18T15:45:27.816Z,17.65
2017-11-18T15:48:01.093Z,18.42
2017-11-18T15:50:34.980Z,20.90
2017-11-18T15:53:08.275Z,15.75
2017-11-18T15:58:49.768Z,14.63
2017-11-18T16:01:23.876Z,24.23
2017-11-18T16:03:52.816Z,14.20
2017-11-18T16:12:40.053Z,15.45
2017-11-18T16:15:15.199Z,22.02
2017-11-18T16:17:43.482Z,16.15
2017-11-18T16:25:51.215Z,16.15
2017-11-18T16:30:59.955Z,21.23
2017-11-18T16:33:27.484Z,19.20
2017-11-18T16:35:54.972Z,16.67
2017-11-18T16:38:23.253Z,19.95
2017-11-18T16:40:50.715Z,18.98
2017-11-18T16:43:18.966Z,16.75
2017-11-18T16:45:46.452Z,20.27
2017-11-18T16:48:14.704Z,23.02
2017-11-18T16:50:42.210Z,18.42
2017-11-18T16:53:09.755Z,21.12
2017-11-18T16:55:38.057Z,19.15
2017-11-18T16:58:05.544Z,14.23
2017-11-18T17:00:33.006Z,18.05
2017-11-18T17:03:00.517Z,21.60
2017-11-18T17:05:28.777Z,21.92
2017-11-18T17:07:57.054Z,25.48
2017-11-18T17:10:25.414Z,12.25
2017-11-18T17:12:53.824Z,14.77
2017-11-18T17:15:21.311Z,14.70
2017-11-18T17:17:48.800Z,17.80
2017-11-18T17:20:16.368Z,14.30
2017-11-18T17:22:43.851Z,14.45
2017-11-18T17:25:12.127Z,14.43
2017-11-18T17:27:40.364Z,18.25
2017-11-18T17:30:07.852Z,18.25
2017-11-18T17:32:36.087Z,19.17
2017-11-18T17:35:03.590Z,11.38
2017-11-18T17:37:31.199Z,21.65
2017-11-18T17:39:58.657Z,9.95
2017-11-18T17:42:26.185Z,14.10
2017-11-18T17:44:54.432Z,15.93
2017-11-18T17:47:21.977Z,9.65
2017-11-18T17:49:49.484Z,17.10
2017-11-18T17:52:17.725Z,12.10
2017-11-18T17:54:45.246Z,10.65
2017-11-18T17:57:12.717Z,7.93
2017-11-18T17:59:40.204Z,12.93
2017-11-18T18:02:07.736Z,13.98
2017-11-18T18:04:35.207Z,12.57
2017-11-18T18:07:02.743Z,13.80
2017-11-18T18:12:26.245Z,11.77
2017-11-18T18:14:53.720Z,11.82
2017-11-18T18:17:21.237Z,13.62
2017-11-18T18:19:48.749Z,15.73
2017-11-18T18:22:16.233Z,11.90
2017-11-18T18:24:44.544Z,20.35
2017-11-18T18:27:12.021Z,19.05
2017-11-18T18:29:39.513Z,19.17
2017-11-18T18:32:07.832Z,15.88
2017-11-18T18:34:35.323Z,15.57
2017-11-18T18:37:02.800Z,12.48
2017-11-18T18:39:30.294Z,15.20
2017-11-18T18:41:57.809Z,13.38
2017-11-18T18:44:25.278Z,17.30
2017-11-18T18:46:52.779Z,12.27
2017-11-18T18:49:20.320Z,12.88
2017-11-18T18:51:47.828Z,22.75
2017-11-18T18:54:15.399Z,19.33
2017-11-18T18:56:42.865Z,15.73
2017-11-18T18:59:10.335Z,17.25
2017-11-18T19:01:37.840Z,14.23
2017-11-18T19:04:05.300Z,146.23
2017-11-18T19:06:32.825Z,37.83
2017-11-18T19:09:01.133Z,16.33
2017-11-18T19:11:28.632Z,18.37
2017-11-18T19:13:56.125Z,21.33
2017-11-18T19:16:24.518Z,18.83
2017-11-18T19:18:52.017Z,15.80
2017-11-18T19:21:19.510Z,13.30
2017-11-18T19:23:47.764Z,13.95
2017-11-18T19:26:15.285Z,14.70
2017-11-18T19:28:43.515Z,13.43
2017-11-18T19:31:11.054Z,14.10
2017-11-18T19:33:38.572Z,14.32
2017-11-18T19:36:06.117Z,23.85
2017-11-18T19:38:34.343Z,11.10
2017-11-18T19:41:01.866Z,19.02
2017-11-18T19:43:29.341Z,13.73
2017-11-18T19:45:56.980Z,14.07
2017-11-18T19:48:24.525Z,21.20
2017-11-18T19:50:52.753Z,19.05
2017-11-18T19:53:20.224Z,20.05
2017-11-18T19:55:47.789Z,20.05
2017-11-18T19:58:15.310Z,10.15
2017-11-18T20:00:42.872Z,14.80
2017-11-18T20:03:10.378Z,14.25
2017-11-18T20:05:38.668Z,15.43
2017-11-18T20:08:06.957Z,13.30
2017-11-18T20:10:35.196Z,23.25
2017-11-18T20:13:02.817Z,13.30
2017-11-18T20:15:30.326Z,13.55
2017-11-18T20:17:57.845Z,11.20
2017-11-18T20:20:25.445Z,24.17
2017-11-18T20:22:52.991Z,15.25
2017-11-18T20:25:20.556Z,14.25
2017-11-18T20:27:48.059Z,12.02
2017-11-18T20:30:15.560Z,11.75
2017-11-18T20:32:43.048Z,11.57
2017-11-18T20:35:10.512Z,16.12
2017-11-18T20:37:38.794Z,14.38
2017-11-18T20:40:07.113Z,9.23
2017-11-18T20:42:34.645Z,14.90
2017-11-18T20:45:02.126Z,15.23
2017-11-18T20:47:29.653Z,11.30
2017-11-18T20:49:57.906Z,19.60
2017-11-18T20:52:25.442Z,15.63
2017-11-18T20:54:52.966Z,14.15
2017-11-18T20:57:20.534Z,16.42
2017-11-18T20:59:48.065Z,19.23
2017-11-18T21:02:16.306Z,11.75
2017-11-18T21:04:43.854Z,16.70
2017-11-18T21:07:11.383Z,10.43
2017-11-18T21:09:38.847Z,8.30
2017-11-18T21:12:06.458Z,12.25
2017-11-18T21:14:34.005Z,19.60
2017-11-18T21:17:01.496Z,21.23
2017-11-18T21:19:29.803Z,10.82
2017-11-18T21:21:57.389Z,15.32
2017-11-18T21:24:24.976Z,7.60
2017-11-18T21:26:53.244Z,14.60
2017-11-18T21:29:20.759Z,7.57
2017-11-18T21:31:48.276Z,13.73
2017-11-18T21:34:15.804Z,12.27
2017-11-18T21:36:43.349Z,9.18
2017-11-18T21:39:10.850Z,12.85
2017-11-18T21:41:38.312Z,12.45
2017-11-18T21:44:05.832Z,22.17
2017-11-18T21:46:33.325Z,11.32
2017-11-18T21:49:00.871Z,13.13
2017-11-18T21:51:28.371Z,11.12
2017-11-18T21:53:56.596Z,10.93
2017-11-18T21:56:24.142Z,12.90
2017-11-18T21:58:51.674Z,12.27
2017-11-18T22:01:19.920Z,12.07
2017-11-18T22:03:47.841Z,16.08
2017-11-18T22:06:15.328Z,17.23
2017-11-18T22:08:42.835Z,15.88
2017-11-18T22:11:11.199Z,11.52
2017-11-18T22:13:39.466Z,13.27
2017-11-18T22:16:06.978Z,10.63
2017-11-18T22:18:34.449Z,27.27
2017-11-18T22:21:01.971Z,12.95
2017-11-18T22:23:29.546Z,12.05
2017-11-18T22:25:57.026Z,15.18
2017-11-18T22:28:24.531Z,11.35
2017-11-18T22:30:52.773Z,21.02
2017-11-18T22:33:20.304Z,12.45
2017-11-18T22:35:47.773Z,16.23
2017-11-18T22:38:15.276Z,14.07
2017-11-18T22:40:42.763Z,13.90
2017-11-18T22:43:10.246Z,12.00
2017-11-18T22:45:37.746Z,16.45
2017-11-18T22:48:05.225Z,16.12
2017-11-18T22:50:33.502Z,14.65
2017-11-18T22:53:01.729Z,12.37
2017-11-18T22:55:29.235Z,16.08
2017-11-18T22:57:57.528Z,16.23
2017-11-18T23:00:40.547Z,15.48
2017-11-18T23:03:08.825Z,16.08
2017-11-18T23:05:37.076Z,11.00
2017-11-18T23:08:04.550Z,13.57
2017-11-18T23:10:32.825Z,18.92
2017-11-18T23:13:01.062Z,15.52
2017-11-18T23:15:28.592Z,14.23
2017-11-18T23:17:56.058Z,16.45
2017-11-18T23:20:23.566Z,12.48
2017-11-18T23:22:51.045Z,22.27
2017-11-18T23:25:19.336Z,23.73
2017-11-18T23:27:46.811Z,13.93
2017-11-18T23:30:14.281Z,13.20
2017-11-18T23:32:41.785Z,14.00
2017-11-18T23:35:10.084Z,19.55
2017-11-18T23:37:37.565Z,20.85
2017-11-18T23:40:05.020Z,13.50
2017-11-18T23:42:32.483Z,13.07
2017-11-18T23:45:00.011Z,28.17
2017-11-18T23:47:28.238Z,14.07
2017-11-18T23:49:55.727Z,18.60
2017-11-18T23:52:23.995Z,16.20
2017-11-18T23:54:51.504Z,16.60
2017-11-18T23:57:18.983Z,21.58
2017-11-18T23:59:46.461Z,17.75
